Time;durP1;ratioP1;P1;durP2;ratioP2;P2;SDS_P1;SDS_P2;PMS_P1;PMS_P2;Temp;Humidity;BMP_temperature;BMP_pressure;BME280_temperature;BME280_humidity;BME280_pressure;Samples;Min_cycle;Max_cycle;Signal;HPM_P1;HPM_P2
2022/03/30 00:01:08;;;;;;;27.83;16.70;;;;;;;;;;6316547;22;20014;-82
2022/03/30 00:03:34;;;;;;;24.40;15.65;;;;;;;;;;6318002;22;19995;-81
2022/03/30 00:06:00;;;;;;;26.25;16.45;;;;;;;;;;6317298;22;20403;-82
2022/03/30 00:08:26;;;;;;;24.05;17.02;;;;;;;;;;6317223;22;20003;-82
2022/03/30 00:10:52;;;;;;;23.38;15.93;;;;;;;;;;6317406;22;20003;-82
2022/03/30 00:13:18;;;;;;;26.90;16.75;;;;;;;;;;6316977;22;19999;-82
2022/03/30 00:15:45;;;;;;;25.75;16.83;;;;;;;;;;6317179;22;20003;-81
2022/03/30 00:18:11;;;;;;;26.83;18.25;;;;;;;;;;6317285;22;20001;-82
2022/03/30 00:20:37;;;;;;;25.27;18.00;;;;;;;;;;6316635;22;20009;-82
2022/03/30 00:23:03;;;;;;;24.13;17.13;;;;;;;;;;6316860;22;20058;-82
2022/03/30 00:25:29;;;;;;;26.02;17.00;;;;;;;;;;6316000;22;20009;-81
2022/03/30 00:27:55;;;;;;;27.70;16.05;;;;;;;;;;6315823;22;20006;-82
2022/03/30 00:30:22;;;;;;;24.80;16.60;;;;;;;;;;6316341;22;20006;-82
2022/03/30 00:32:48;;;;;;;24.17;16.38;;;;;;;;;;6316260;22;20003;-82
2022/03/30 00:35:15;;;;;;;24.17;16.83;;;;;;;;;;6315549;22;20027;-82
2022/03/30 00:37:42;;;;;;;24.95;16.33;;;;;;;;;;6315807;22;19999;-81
2022/03/30 00:40:10;;;;;;;24.70;16.67;;;;;;;;;;6315386;22;19996;-82
2022/03/30 00:42:36;;;;;;;25.15;16.75;;;;;;;;;;6316341;22;20002;-82
2022/03/30 00:45:16;;;;;;;23.63;16.65;;;;;;;;;;6288641;22;20004;-82
2022/03/30 00:47:42;;;;;;;25.98;17.00;;;;;;;;;;6287872;22;20094;-82
2022/03/30 00:50:09;;;;;;;24.52;17.05;;;;;;;;;;6315711;22;20010;-82
2022/03/30 00:52:36;;;;;;;24.85;16.83;;;;;;;;;;6315743;22;20443;-81
2022/03/30 00:55:03;;;;;;;27.90;17.80;;;;;;;;;;6316110;22;19999;-81
2022/03/30 00:57:29;;;;;;;24.00;17.30;;;;;;;;;;6288082;22;20276;-81
2022/03/30 00:59:56;;;;;;;27.48;17.70;;;;;;;;;;6316527;22;20025;-82
2022/03/30 01:02:23;;;;;;;24.15;16.17;;;;;;;;;;6284593;22;20008;-82
2022/03/30 01:04:50;;;;;;;25.00;16.63;;;;;;;;;;6257350;22;20035;-82
2022/03/30 01:07:16;;;;;;;24.02;16.90;;;;;;;;;;6285606;22;20003;-82
2022/03/30 01:09:42;;;;;;;23.30;15.82;;;;;;;;;;6256615;22;20746;-81
2022/03/30 01:12:12;;;;;;;24.77;16.33;;;;;;;;;;6284971;22;20000;-81
2022/03/30 01:14:38;;;;;;;24.10;16.23;;;;;;;;;;6286638;22;20000;-82
2022/03/30 01:17:05;;;;;;;24.85;15.35;;;;;;;;;;6285559;22;19996;-82
2022/03/30 01:19:32;;;;;;;22.75;16.20;;;;;;;;;;6286498;22;20067;-81
2022/03/30 01:21:59;;;;;;;24.80;15.70;;;;;;;;;;6287133;22;20011;-82
2022/03/30 01:24:26;;;;;;;23.35;16.02;;;;;;;;;;6286590;22;20451;-81
2022/03/30 01:26:52;;;;;;;23.83;16.08;;;;;;;;;;6286157;22;20014;-82
2022/03/30 01:34:48;;;;;;;22.10;15.13;;;;;;;;;;6286153;22;20034;-81
2022/03/30 01:37:14;;;;;;;24.75;16.20;;;;;;;;;;6286874;22;20007;-81
2022/03/30 01:39:41;;;;;;;24.02;16.10;;;;;;;;;;6286546;22;20004;-82
2022/03/30 01:42:07;;;;;;;27.95;16.90;;;;;;;;;;6287084;22;20022;-81
2022/03/30 01:44:34;;;;;;;24.25;15.90;;;;;;;;;;6286536;22;20376;-82
2022/03/30 01:47:00;;;;;;;25.98;16.13;;;;;;;;;;6286135;22;20348;-81
2022/03/30 01:49:26;;;;;;;24.77;16.58;;;;;;;;;;6286387;22;20082;-82
2022/03/30 01:51:53;;;;;;;26.13;17.08;;;;;;;;;;6286111;22;20530;-81
2022/03/30 01:54:22;;;;;;;24.77;16.73;;;;;;;;;;6286695;22;20000;-81
2022/03/30 01:56:49;;;;;;;24.45;15.70;;;;;;;;;;6286633;22;20451;-81
2022/03/30 01:59:16;;;;;;;25.15;16.90;;;;;;;;;;6286036;22;20000;-81
2022/03/30 02:01:42;;;;;;;25.42;17.10;;;;;;;;;;6281519;22;20027;-81
2022/03/30 02:04:08;;;;;;;24.35;16.85;;;;;;;;;;6317536;22;19999;-81
2022/03/30 02:06:34;;;;;;;26.25;16.05;;;;;;;;;;6317073;22;20030;-81
2022/03/30 02:09:00;;;;;;;27.77;17.08;;;;;;;;;;6317702;22;20009;-81
2022/03/30 02:11:27;;;;;;;26.38;17.02;;;;;;;;;;6289471;22;20003;-81
2022/03/30 02:13:53;;;;;;;25.73;16.42;;;;;;;;;;6317027;22;20451;-81
2022/03/30 02:16:20;;;;;;;25.75;16.98;;;;;;;;;;6290535;22;20011;-81
2022/03/30 02:18:46;;;;;;;23.65;15.65;;;;;;;;;;6318518;22;20002;-81
2022/03/30 02:21:12;;;;;;;24.35;17.88;;;;;;;;;;6318756;22;19995;-81
2022/03/30 02:23:39;;;;;;;26.52;16.70;;;;;;;;;;6316540;22;20058;-82
2022/03/30 02:26:05;;;;;;;22.65;15.27;;;;;;;;;;6317210;22;20019;-81
2022/03/30 02:28:32;;;;;;;27.13;17.13;;;;;;;;;;6317825;22;20342;-81
2022/03/30 02:30:58;;;;;;;24.52;17.60;;;;;;;;;;6318493;22;20087;-81
2022/03/30 02:33:24;;;;;;;24.50;16.88;;;;;;;;;;6317889;22;20010;-81
2022/03/30 02:35:50;;;;;;;25.17;16.23;;;;;;;;;;6317810;22;20063;-81
2022/03/30 02:38:16;;;;;;;25.35;17.15;;;;;;;;;;6317229;22;20051;-81
2022/03/30 02:40:42;;;;;;;25.42;16.67;;;;;;;;;;6318537;22;19995;-81
2022/03/30 02:43:10;;;;;;;23.05;15.52;;;;;;;;;;6317862;22;19996;-81
2022/03/30 02:45:36;;;;;;;24.42;16.83;;;;;;;;;;6317150;22;20134;-82
2022/03/30 02:48:18;;;;;;;27.80;16.60;;;;;;;;;;6317670;22;20035;-81
2022/03/30 02:50:45;;;;;;;23.88;16.08;;;;;;;;;;6316530;22;19999;-81
2022/03/30 02:53:11;;;;;;;27.15;18.92;;;;;;;;;;6317473;22;20025;-81
2022/03/30 02:55:37;;;;;;;24.85;16.55;;;;;;;;;;6317267;22;20007;-81
2022/03/30 02:58:04;;;;;;;24.35;17.17;;;;;;;;;;6316862;22;20019;-81
2022/03/30 03:00:30;;;;;;;29.85;19.35;;;;;;;;;;6324936;22;20014;-81
2022/03/30 03:02:56;;;;;;;23.02;16.10;;;;;;;;;;6325598;22;19999;-82
2022/03/30 03:05:22;;;;;;;24.30;16.83;;;;;;;;;;6291417;22;20007;-82
2022/03/30 03:07:48;;;;;;;24.35;16.15;;;;;;;;;;6318304;22;19999;-82
2022/03/30 03:10:14;;;;;;;26.35;18.42;;;;;;;;;;6318043;22;20006;-81
2022/03/30 03:12:40;;;;;;;26.27;16.73;;;;;;;;;;6318000;22;20030;-81
2022/03/30 03:15:07;;;;;;;25.58;17.70;;;;;;;;;;6318765;22;20003;-81
2022/03/30 03:17:33;;;;;;;26.02;17.10;;;;;;;;;;6317902;22;20066;-81
2022/03/30 03:19:59;;;;;;;25.80;17.05;;;;;;;;;;6317554;22;19999;-81
2022/03/30 03:22:25;;;;;;;25.17;17.40;;;;;;;;;;6317986;22;20420;-82
2022/03/30 03:24:51;;;;;;;26.95;18.17;;;;;;;;;;6317906;22;20006;-81
2022/03/30 03:27:17;;;;;;;25.30;17.50;;;;;;;;;;6322438;22;20030;-82
2022/03/30 03:29:44;;;;;;;25.63;18.38;;;;;;;;;;6292730;22;20027;-81
2022/03/30 03:32:10;;;;;;;25.40;17.58;;;;;;;;;;6317649;22;20007;-81
2022/03/30 03:34:36;;;;;;;24.52;16.67;;;;;;;;;;6290663;22;20007;-81
2022/03/30 03:37:02;;;;;;;25.52;16.73;;;;;;;;;;6317146;22;20313;-81
2022/03/30 03:39:28;;;;;;;26.63;17.52;;;;;;;;;;6288218;22;20025;-81
2022/03/30 03:41:54;;;;;;;26.02;17.55;;;;;;;;;;6315356;22;20447;-81
2022/03/30 03:44:20;;;;;;;27.65;17.52;;;;;;;;;;6315625;22;19999;-81
2022/03/30 03:46:46;;;;;;;34.08;18.05;;;;;;;;;;6317263;22;20052;-81
2022/03/30 03:49:12;;;;;;;27.67;18.90;;;;;;;;;;6316582;22;20431;-82
2022/03/30 03:51:38;;;;;;;26.45;17.33;;;;;;;;;;6317217;22;20053;-81
2022/03/30 03:54:04;;;;;;;33.10;19.17;;;;;;;;;;6317145;22;20006;-82
2022/03/30 03:56:31;;;;;;;27.40;17.55;;;;;;;;;;6291209;22;20022;-82
2022/03/30 03:58:57;;;;;;;26.27;17.35;;;;;;;;;;6318323;22;20010;-82
2022/03/30 04:01:23;;;;;;;25.42;18.27;;;;;;;;;;6316964;22;20018;-82
2022/03/30 04:03:49;;;;;;;25.58;17.58;;;;;;;;;;6317396;22;19999;-81
2022/03/30 04:06:15;;;;;;;25.80;17.38;;;;;;;;;;6317452;22;20018;-82
2022/03/30 04:08:41;;;;;;;26.55;16.88;;;;;;;;;;6315800;22;20451;-81
2022/03/30 04:11:07;;;;;;;35.70;20.08;;;;;;;;;;6316471;22;20011;-81
2022/03/30 04:13:36;;;;;;;26.52;18.60;;;;;;;;;;6317517;22;20389;-81
2022/03/30 04:16:02;;;;;;;25.88;18.80;;;;;;;;;;6317915;22;19995;-82
2022/03/30 04:18:28;;;;;;;29.63;19.50;;;;;;;;;;6318302;22;20423;-81
2022/03/30 04:20:54;;;;;;;25.73;17.13;;;;;;;;;;6316645;22;20006;-82
2022/03/30 04:23:20;;;;;;;28.77;18.30;;;;;;;;;;6316967;22;20004;-80
2022/03/30 04:25:46;;;;;;;30.67;18.05;;;;;;;;;;6318453;22;20030;-81
2022/03/30 04:28:15;;;;;;;26.00;17.48;;;;;;;;;;6318143;22;20013;-81
2022/03/30 04:30:41;;;;;;;27.77;18.90;;;;;;;;;;6324265;22;20000;-81
2022/03/30 04:33:09;;;;;;;25.00;17.90;;;;;;;;;;6300953;22;20072;-81
2022/03/30 04:35:35;;;;;;;27.45;17.85;;;;;;;;;;6328651;22;20003;-81
2022/03/30 04:38:01;;;;;;;32.05;19.30;;;;;;;;;;6328903;22;20078;-81
2022/03/30 04:40:28;;;;;;;33.03;19.75;;;;;;;;;;6328951;22;20059;-81
2022/03/30 04:42:54;;;;;;;28.60;19.25;;;;;;;;;;6324752;22;20420;-81
2022/03/30 04:45:20;;;;;;;31.10;18.80;;;;;;;;;;6317332;22;20010;-82
2022/03/30 04:47:47;;;;;;;31.52;19.52;;;;;;;;;;6316921;22;20010;-81
2022/03/30 04:50:13;;;;;;;26.13;17.15;;;;;;;;;;6318012;22;19999;-81
2022/03/30 04:52:39;;;;;;;30.58;18.77;;;;;;;;;;6319512;22;20014;-81
2022/03/30 04:55:06;;;;;;;33.03;20.08;;;;;;;;;;6319247;22;19995;-82
2022/03/30 04:57:32;;;;;;;31.05;18.92;;;;;;;;;;6318615;22;20049;-81
2022/03/30 04:59:58;;;;;;;31.02;20.02;;;;;;;;;;6319313;22;19995;-81
2022/03/30 05:02:25;;;;;;;29.45;20.23;;;;;;;;;;6288468;22;20011;-81
2022/03/30 05:04:51;;;;;;;34.63;20.92;;;;;;;;;;6288794;22;20339;-81
2022/03/30 05:07:17;;;;;;;33.10;21.25;;;;;;;;;;6289622;22;20458;-81
2022/03/30 05:09:43;;;;;;;27.77;19.00;;;;;;;;;;6293716;22;20011;-81
2022/03/30 05:12:09;;;;;;;28.27;19.50;;;;;;;;;;6299115;22;20000;-80
2022/03/30 05:14:35;;;;;;;29.85;19.23;;;;;;;;;;6298939;22;20014;-81
2022/03/30 05:17:02;;;;;;;28.27;18.55;;;;;;;;;;6299682;22;20026;-81
2022/03/30 05:19:28;;;;;;;31.30;20.75;;;;;;;;;;6293290;22;20007;-81
2022/03/30 05:21:54;;;;;;;31.08;19.75;;;;;;;;;;6284584;22;20023;-81
2022/03/30 05:24:20;;;;;;;31.40;21.45;;;;;;;;;;6284943;22;20078;-81
2022/03/30 05:26:47;;;;;;;33.42;20.95;;;;;;;;;;6285632;22;19999;-81
2022/03/30 05:29:13;;;;;;;29.52;19.40;;;;;;;;;;6286049;22;20479;-81
2022/03/30 05:31:39;;;;;;;30.73;19.23;;;;;;;;;;6285897;22;20026;-81
2022/03/30 05:34:05;;;;;;;31.48;20.35;;;;;;;;;;6286019;22;19999;-81
2022/03/30 05:36:31;;;;;;;36.85;19.30;;;;;;;;;;6285822;22;20424;-81
2022/03/30 05:38:57;;;;;;;29.83;19.33;;;;;;;;;;6285906;22;20006;-81
2022/03/30 05:41:23;;;;;;;29.98;20.00;;;;;;;;;;6286430;22;20004;-81
2022/03/30 05:43:49;;;;;;;31.00;19.38;;;;;;;;;;6285809;22;20000;-81
2022/03/30 05:46:15;;;;;;;28.08;18.60;;;;;;;;;;6286367;22;20000;-81
2022/03/30 05:48:41;;;;;;;33.67;20.58;;;;;;;;;;6285590;22;20014;-82
2022/03/30 05:51:08;;;;;;;30.52;20.25;;;;;;;;;;6286323;22;20014;-81
2022/03/30 05:53:34;;;;;;;33.33;20.55;;;;;;;;;;6286788;22;20511;-81
2022/03/30 05:56:00;;;;;;;29.60;18.83;;;;;;;;;;6286304;22;20004;-81
2022/03/30 05:58:26;;;;;;;30.17;19.35;;;;;;;;;;6286034;22;20015;-82
2022/03/30 06:00:52;;;;;;;30.30;19.88;;;;;;;;;;6294630;22;20033;-82
2022/03/30 06:03:18;;;;;;;29.08;18.73;;;;;;;;;;6321473;22;19999;-82
2022/03/30 06:05:44;;;;;;;31.38;19.60;;;;;;;;;;6322495;22;20004;-82
2022/03/30 06:08:10;;;;;;;34.65;21.35;;;;;;;;;;6318421;22;20019;-82
2022/03/30 06:10:36;;;;;;;32.40;19.38;;;;;;;;;;6318425;22;19999;-81
2022/03/30 06:13:03;;;;;;;29.15;19.20;;;;;;;;;;6317411;22;20343;-82
2022/03/30 06:15:29;;;;;;;30.17;18.80;;;;;;;;;;6318149;22;20074;-82
2022/03/30 06:17:56;;;;;;;26.55;18.42;;;;;;;;;;6316493;22;20086;-83
2022/03/30 06:20:26;;;;;;;27.08;18.40;;;;;;;;;;6289958;22;19999;-81
2022/03/30 06:22:53;;;;;;;28.60;19.27;;;;;;;;;;6317641;22;19995;-81
2022/03/30 06:25:22;;;;;;;26.67;18.67;;;;;;;;;;6316846;22;20597;-82
2022/03/30 06:27:48;;;;;;;43.63;18.75;;;;;;;;;;6291155;22;20073;-82
2022/03/30 06:30:14;;;;;;;28.63;19.38;;;;;;;;;;6318405;22;20496;-82
2022/03/30 06:32:41;;;;;;;28.10;17.55;;;;;;;;;;6318615;22;20086;-82
2022/03/30 06:35:07;;;;;;;29.67;18.15;;;;;;;;;;6318019;22;20003;-82
2022/03/30 06:37:33;;;;;;;26.98;18.75;;;;;;;;;;6318877;22;19999;-82
2022/03/30 06:39:59;;;;;;;28.27;18.13;;;;;;;;;;6289591;22;19999;-82
2022/03/30 06:42:25;;;;;;;25.92;17.42;;;;;;;;;;6289472;22;20003;-82
2022/03/30 06:44:51;;;;;;;28.08;18.35;;;;;;;;;;6290273;22;20007;-81
2022/03/30 06:47:17;;;;;;;26.30;17.90;;;;;;;;;;6316526;22;20104;-82
2022/03/30 06:49:43;;;;;;;27.85;16.48;;;;;;;;;;6319050;22;20431;-81
2022/03/30 06:52:10;;;;;;;32.53;19.05;;;;;;;;;;6318171;22;20010;-82
2022/03/30 06:54:37;;;;;;;26.90;17.40;;;;;;;;;;6317922;22;20015;-82
2022/03/30 06:57:04;;;;;;;27.75;16.05;;;;;;;;;;6319172;22;19995;-82
2022/03/30 06:59:30;;;;;;;28.38;16.65;;;;;;;;;;6318536;22;20056;-81
2022/03/30 07:01:58;;;;;;;25.95;16.65;;;;;;;;;;6318682;22;20012;-81
2022/03/30 07:04:24;;;;;;;27.40;17.67;;;;;;;;;;6318172;22;19996;-82
2022/03/30 07:12:19;;;;;;;28.27;16.95;;;;;;;;;;6318443;22;20126;-81
2022/03/30 07:14:46;;;;;;;27.67;17.80;;;;;;;;;;6316997;22;20003;-81
2022/03/30 07:17:13;;;;;;;26.77;17.92;;;;;;;;;;6318836;22;20022;-81
2022/03/30 07:19:40;;;;;;;28.63;17.20;;;;;;;;;;6318801;22;19999;-81
2022/03/30 07:22:06;;;;;;;27.52;17.13;;;;;;;;;;6319136;22;19995;-81
2022/03/30 07:24:32;;;;;;;29.10;18.77;;;;;;;;;;6318927;22;20042;-82
2022/03/30 07:26:58;;;;;;;26.92;16.77;;;;;;;;;;6317902;22;20007;-82
2022/03/30 07:29:24;;;;;;;25.30;16.25;;;;;;;;;;6291311;22;20091;-81
2022/03/30 07:31:50;;;;;;;27.45;17.15;;;;;;;;;;6290917;22;20029;-81
2022/03/30 07:34:17;;;;;;;26.38;16.63;;;;;;;;;;6317843;22;20355;-81
2022/03/30 07:36:43;;;;;;;24.45;15.50;;;;;;;;;;6320219;22;20424;-82
2022/03/30 07:39:09;;;;;;;27.88;15.52;;;;;;;;;;6320911;22;19991;-81
2022/03/30 07:41:35;;;;;;;26.75;15.93;;;;;;;;;;6290927;22;19995;-81
2022/03/30 07:44:01;;;;;;;25.23;15.70;;;;;;;;;;6319000;22;20003;-81
2022/03/30 07:46:27;;;;;;;26.77;16.52;;;;;;;;;;6318295;22;19991;-81
2022/03/30 07:48:53;;;;;;;24.10;15.48;;;;;;;;;;6317766;22;20313;-81
2022/03/30 07:51:19;;;;;;;28.63;15.55;;;;;;;;;;6318397;22;19995;-81
2022/03/30 07:53:45;;;;;;;24.63;15.10;;;;;;;;;;6318215;22;19995;-81
2022/03/30 07:56:11;;;;;;;23.42;14.38;;;;;;;;;;6318218;22;20033;-81
2022/03/30 07:58:37;;;;;;;27.50;15.00;;;;;;;;;;6318176;22;20023;-81
2022/03/30 08:01:03;;;;;;;27.42;15.48;;;;;;;;;;6317861;22;20014;-81
2022/03/30 08:03:29;;;;;;;25.83;14.65;;;;;;;;;;6316634;22;20006;-81
2022/03/30 08:05:55;;;;;;;21.63;14.05;;;;;;;;;;6317718;22;20027;-81
2022/03/30 08:08:21;;;;;;;24.75;14.48;;;;;;;;;;6318948;22;20014;-81
2022/03/30 08:10:47;;;;;;;20.55;13.43;;;;;;;;;;6317852;22;20208;-80
2022/03/30 08:13:13;;;;;;;21.52;12.70;;;;;;;;;;6318357;22;20019;-82
2022/03/30 08:15:39;;;;;;;19.67;13.60;;;;;;;;;;6318350;22;20006;-81
2022/03/30 08:18:08;;;;;;;24.27;12.65;;;;;;;;;;6317449;22;20045;-81
2022/03/30 08:23:19;;;;;;;23.15;13.48;;;;;;;;;;6316439;22;20013;-81
2022/03/30 08:25:45;;;;;;;22.58;14.65;;;;;;;;;;6290647;22;20003;-81
2022/03/30 08:28:11;;;;;;;22.08;12.15;;;;;;;;;;6317822;22;19995;-81
2022/03/30 08:30:39;;;;;;;21.67;12.65;;;;;;;;;;6317015;22;20438;-81
2022/03/30 08:33:05;;;;;;;22.23;12.07;;;;;;;;;;6317507;22;20030;-81
2022/03/30 08:35:32;;;;;;;18.42;12.15;;;;;;;;;;6317729;22;20026;-81
2022/03/30 08:37:58;;;;;;;20.35;11.60;;;;;;;;;;6316511;22;20003;-81
2022/03/30 08:40:25;;;;;;;19.73;10.98;;;;;;;;;;6317122;22;20002;-81
2022/03/30 08:42:52;;;;;;;19.33;12.20;;;;;;;;;;6320443;22;20066;-83
2022/03/30 08:45:19;;;;;;;20.75;11.32;;;;;;;;;;6317215;22;19999;-81
2022/03/30 08:47:45;;;;;;;18.25;11.52;;;;;;;;;;6317331;22;19995;-81
2022/03/30 08:50:11;;;;;;;19.35;12.15;;;;;;;;;;6317211;22;20010;-81
2022/03/30 08:52:37;;;;;;;22.10;12.43;;;;;;;;;;6317737;22;20007;-81
2022/03/30 08:55:03;;;;;;;19.65;12.15;;;;;;;;;;6317833;22;20003;-81
2022/03/30 08:57:29;;;;;;;17.42;11.23;;;;;;;;;;6317248;22;20021;-81
2022/03/30 09:00:06;;;;;;;20.38;12.60;;;;;;;;;;6316284;22;19995;-81
2022/03/30 09:02:36;;;;;;;20.65;11.85;;;;;;;;;;6316978;22;20037;-81
2022/03/30 09:05:12;;;;;;;19.77;11.20;;;;;;;;;;6318303;22;19999;-81
2022/03/30 09:07:39;;;;;;;19.63;10.95;;;;;;;;;;6317316;22;20006;-81
2022/03/30 09:10:05;;;;;;;20.15;11.63;;;;;;;;;;6317344;22;20007;-81
2022/03/30 09:12:31;;;;;;;16.77;10.02;;;;;;;;;;6318910;22;19995;-81
2022/03/30 09:15:02;;;;;;;17.70;10.18;;;;;;;;;;6318956;22;20015;-82
2022/03/30 09:17:36;;;;;;;16.63;9.52;;;;;;;;;;6320273;22;20025;-82
2022/03/30 09:20:04;;;;;;;19.48;10.20;;;;;;;;;;6318584;22;19999;-81
2022/03/30 09:22:31;;;;;;;15.57;9.60;;;;;;;;;;6317073;22;20060;-81
2022/03/30 09:24:57;;;;;;;17.23;10.43;;;;;;;;;;6314692;22;20025;-81
2022/03/30 09:27:24;;;;;;;16.40;9.30;;;;;;;;;;6290466;22;20003;-81
2022/03/30 09:29:50;;;;;;;17.10;9.63;;;;;;;;;;6319508;22;20014;-81
2022/03/30 09:32:16;;;;;;;14.15;8.88;;;;;;;;;;6324189;22;19999;-81
2022/03/30 09:34:52;;;;;;;15.38;9.68;;;;;;;;;;6321578;22;20003;-81
2022/03/30 09:37:18;;;;;;;15.95;10.18;;;;;;;;;;6319366;22;20003;-81
2022/03/30 09:39:44;;;;;;;16.10;10.23;;;;;;;;;;6319596;22;20047;-82
2022/03/30 09:42:11;;;;;;;16.25;9.00;;;;;;;;;;6319118;22;19979;-82
2022/03/30 09:44:46;;;;;;;15.98;9.73;;;;;;;;;;6319745;22;20003;-82
2022/03/30 09:47:12;;;;;;;22.13;9.68;;;;;;;;;;6319939;22;20006;-82
2022/03/30 09:49:40;;;;;;;14.98;9.27;;;;;;;;;;6318878;22;20020;-82
2022/03/30 09:52:13;;;;;;;15.95;9.90;;;;;;;;;;6317776;22;20010;-82
2022/03/30 09:54:40;;;;;;;15.18;9.77;;;;;;;;;;6291594;22;20037;-82
2022/03/30 09:57:26;;;;;;;17.60;9.70;;;;;;;;;;6319950;22;20056;-81
2022/03/30 09:59:55;;;;;;;20.10;9.68;;;;;;;;;;6319979;22;20006;-82
2022/03/30 10:02:21;;;;;;;15.98;9.35;;;;;;;;;;6318898;22;20069;-82
2022/03/30 10:04:48;;;;;;;17.27;9.90;;;;;;;;;;6318885;22;20061;-82
2022/03/30 10:07:14;;;;;;;14.85;10.02;;;;;;;;;;6318027;22;19999;-83
2022/03/30 10:09:42;;;;;;;17.58;9.90;;;;;;;;;;6317763;22;19999;-82
2022/03/30 10:12:08;;;;;;;16.63;10.27;;;;;;;;;;6318076;22;20059;-82
2022/03/30 10:14:36;;;;;;;18.50;10.73;;;;;;;;;;6317205;22;20003;-82
2022/03/30 10:17:03;;;;;;;19.52;11.32;;;;;;;;;;6318450;22;20010;-82
2022/03/30 10:19:29;;;;;;;18.45;10.32;;;;;;;;;;6317546;22;19999;-81
2022/03/30 10:22:17;;;;;;;17.95;10.70;;;;;;;;;;6317611;22;20023;-82
2022/03/30 10:25:03;;;;;;;15.45;10.40;;;;;;;;;;6318249;22;20041;-82
2022/03/30 10:27:44;;;;;;;17.58;11.70;;;;;;;;;;6318537;22;20060;-83
2022/03/30 10:30:11;;;;;;;20.08;11.82;;;;;;;;;;6318524;22;19999;-82
2022/03/30 10:32:38;;;;;;;18.23;11.98;;;;;;;;;;6316575;22;20547;-82
2022/03/30 10:35:08;;;;;;;17.92;11.10;;;;;;;;;;6317208;22;20009;-82
2022/03/30 10:37:36;;;;;;;25.50;13.77;;;;;;;;;;6318177;22;20003;-82
2022/03/30 10:40:06;;;;;;;19.45;11.85;;;;;;;;;;6318997;22;20192;-81
2022/03/30 10:42:49;;;;;;;18.40;11.85;;;;;;;;;;6318101;22;19991;-82
2022/03/30 10:45:38;;;;;;;18.67;11.60;;;;;;;;;;6315843;22;20343;-83
2022/03/30 10:48:10;;;;;;;18.63;11.93;;;;;;;;;;6316134;22;20052;-83
2022/03/30 10:50:37;;;;;;;23.50;14.32;;;;;;;;;;6317926;22;20011;-81
2022/03/30 10:53:03;;;;;;;19.83;12.35;;;;;;;;;;6318934;22;19999;-82
2022/03/30 10:55:30;;;;;;;22.25;13.38;;;;;;;;;;6316453;22;20335;-83
2022/03/30 10:57:58;;;;;;;18.88;12.20;;;;;;;;;;6313259;22;20082;-82
2022/03/30 11:00:31;;;;;;;19.42;12.48;;;;;;;;;;6313642;22;20041;-84
2022/03/30 11:03:14;;;;;;;21.45;12.40;;;;;;;;;;6314504;22;19999;-83
2022/03/30 11:05:44;;;;;;;16.92;11.82;;;;;;;;;;6313803;22;20351;-82
2022/03/30 11:08:29;;;;;;;21.10;12.57;;;;;;;;;;6313440;22;20454;-83
2022/03/30 11:10:55;;;;;;;18.35;11.52;;;;;;;;;;6313350;22;20078;-81
2022/03/30 11:13:25;;;;;;;19.17;12.50;;;;;;;;;;6313932;22;20007;-83
2022/03/30 11:16:00;;;;;;;17.98;12.48;;;;;;;;;;6314504;22;20046;-82
2022/03/30 11:18:30;;;;;;;18.77;11.90;;;;;;;;;;6314237;22;19995;-82
2022/03/30 11:21:11;;;;;;;22.88;14.65;;;;;;;;;;6313341;22;19995;-82
2022/03/30 11:23:38;;;;;;;19.23;13.15;;;;;;;;;;6312969;22;20078;-82
2022/03/30 11:26:04;;;;;;;22.63;13.18;;;;;;;;;;6313000;22;19999;-82
2022/03/30 11:28:37;;;;;;;20.00;13.70;;;;;;;;;;6312445;22;20003;-83
2022/03/30 11:31:05;;;;;;;18.38;12.55;;;;;;;;;;6312730;22;20005;-84
2022/03/30 11:33:35;;;;;;;20.73;13.27;;;;;;;;;;6311901;22;20390;-82
2022/03/30 11:36:03;;;;;;;21.60;13.48;;;;;;;;;;6312182;22;19999;-82
2022/03/30 11:38:37;;;;;;;20.70;13.57;;;;;;;;;;6312117;22;19999;-82
2022/03/30 11:41:08;;;;;;;24.60;13.50;;;;;;;;;;6312284;22;20006;-81
2022/03/30 11:45:12;;;;;;;22.20;15.40;;;;;;;;;;6312780;22;20022;-82
2022/03/30 11:46:28;;;;;;;25.80;15.00;;;;;;;;;;6311664;22;20057;-82
2022/03/30 11:48:59;;;;;;;24.00;14.85;;;;;;;;;;6284770;22;20030;-84
2022/03/30 11:51:26;;;;;;;19.80;13.18;;;;;;;;;;6311969;22;19999;-82
2022/03/30 11:54:09;;;;;;;19.15;13.88;;;;;;;;;;6312358;22;20007;-83
2022/03/30 11:56:35;;;;;;;20.83;13.95;;;;;;;;;;6312675;22;20060;-82
2022/03/30 11:59:01;;;;;;;23.05;13.75;;;;;;;;;;6286020;22;20007;-82
2022/03/30 12:01:27;;;;;;;20.33;14.05;;;;;;;;;;6311604;22;20063;-82
2022/03/30 12:03:55;;;;;;;19.75;12.88;;;;;;;;;;6312347;22;20482;-83
2022/03/30 12:06:21;;;;;;;21.55;13.65;;;;;;;;;;6288931;22;20009;-82
2022/03/30 12:08:52;;;;;;;21.30;14.00;;;;;;;;;;6316988;22;20011;-83
2022/03/30 12:11:19;;;;;;;22.38;14.70;;;;;;;;;;6313052;22;20003;-83
2022/03/30 12:13:53;;;;;;;22.95;15.10;;;;;;;;;;6312678;22;20024;-82
2022/03/30 12:16:19;;;;;;;20.70;14.57;;;;;;;;;;6285536;22;20344;-81
2022/03/30 12:18:47;;;;;;;21.27;14.77;;;;;;;;;;6312828;22;19996;-80
2022/03/30 12:21:24;;;;;;;20.30;12.93;;;;;;;;;;6286290;22;19999;-81
2022/03/30 12:24:14;;;;;;;19.38;13.75;;;;;;;;;;6313380;22;20073;-82
2022/03/30 12:26:40;;;;;;;20.17;13.05;;;;;;;;;;6311317;22;20010;-79
2022/03/30 12:29:10;;;;;;;21.17;13.80;;;;;;;;;;6315762;22;20018;-81
2022/03/30 12:31:38;;;;;;;18.60;13.07;;;;;;;;;;6287966;22;20000;-81
2022/03/30 12:34:18;;;;;;;19.05;12.15;;;;;;;;;;6316133;22;20122;-81
2022/03/30 12:36:43;;;;;;;19.58;13.10;;;;;;;;;;6321827;22;20055;-80
2022/03/30 12:39:24;;;;;;;18.52;13.43;;;;;;;;;;6321367;22;20056;-81
2022/03/30 12:42:04;;;;;;;16.63;12.45;;;;;;;;;;6317845;22;20439;-82
2022/03/30 12:44:31;;;;;;;22.27;14.07;;;;;;;;;;6316132;22;20343;-82
2022/03/30 12:46:58;;;;;;;21.45;12.40;;;;;;;;;;6315822;22;19999;-81
2022/03/30 12:49:34;;;;;;;18.80;11.75;;;;;;;;;;6287082;22;20003;-81
2022/03/30 12:52:07;;;;;;;17.33;11.23;;;;;;;;;;6315681;22;20855;-81
2022/03/30 12:54:33;;;;;;;16.98;11.30;;;;;;;;;;6314999;22;20070;-83
2022/03/30 12:56:59;;;;;;;18.65;11.45;;;;;;;;;;6313985;22;20364;-81
2022/03/30 12:59:25;;;;;;;17.13;11.27;;;;;;;;;;6286885;22;20045;-82
2022/03/30 13:01:52;;;;;;;14.45;11.32;;;;;;;;;;6314273;22;20447;-81
2022/03/30 13:04:22;;;;;;;15.70;10.38;;;;;;;;;;6315031;22;20082;-82
2022/03/30 13:07:07;;;;;;;18.77;11.60;;;;;;;;;;6314106;22;20006;-81
2022/03/30 13:09:33;;;;;;;15.23;11.25;;;;;;;;;;6317561;22;20455;-81
2022/03/30 13:11:59;;;;;;;19.42;12.82;;;;;;;;;;6290160;22;20085;-82
2022/03/30 13:14:26;;;;;;;18.00;10.95;;;;;;;;;;6316710;22;20443;-81
2022/03/30 13:17:07;;;;;;;17.48;11.77;;;;;;;;;;6318561;22;20377;-80
2022/03/30 13:19:34;;;;;;;21.42;12.40;;;;;;;;;;6317722;22;20000;-83
2022/03/30 13:22:00;;;;;;;17.52;11.80;;;;;;;;;;6291273;22;20007;-83
2022/03/30 13:24:27;;;;;;;16.88;11.75;;;;;;;;;;6315984;22;20003;-82
2022/03/30 13:27:03;;;;;;;17.25;12.02;;;;;;;;;;6315347;22;20003;-82
2022/03/30 13:29:30;;;;;;;16.83;11.77;;;;;;;;;;6287921;22;20436;-80
2022/03/30 13:31:56;;;;;;;20.30;12.88;;;;;;;;;;6315010;22;20048;-80
2022/03/30 13:34:24;;;;;;;20.92;12.38;;;;;;;;;;6316139;22;20012;-81
2022/03/30 13:36:50;;;;;;;18.88;11.57;;;;;;;;;;6315845;22;19999;-81
2022/03/30 13:39:17;;;;;;;16.73;12.20;;;;;;;;;;6315624;22;19995;-81
2022/03/30 13:41:44;;;;;;;17.63;11.43;;;;;;;;;;6316945;22;20000;-81
2022/03/30 13:44:10;;;;;;;19.23;12.68;;;;;;;;;;6315266;22;20003;-80
2022/03/30 13:46:37;;;;;;;18.80;12.02;;;;;;;;;;6288218;22;20086;-83
2022/03/30 13:49:04;;;;;;;16.25;11.80;;;;;;;;;;6287348;22;20488;-80
2022/03/30 13:51:30;;;;;;;18.83;11.80;;;;;;;;;;6314341;22;19999;-81
2022/03/30 13:53:56;;;;;;;16.85;11.30;;;;;;;;;;6314642;22;20471;-80
2022/03/30 13:56:23;;;;;;;19.75;13.48;;;;;;;;;;6314463;22;20010;-81
2022/03/30 13:58:52;;;;;;;19.50;13.23;;;;;;;;;;6313579;22;19995;-80
2022/03/30 14:01:19;;;;;;;15.10;11.38;;;;;;;;;;6315902;22;20152;-81
2022/03/30 14:03:45;;;;;;;20.73;13.90;;;;;;;;;;6316420;22;19999;-81
2022/03/30 14:06:11;;;;;;;18.48;12.68;;;;;;;;;;6319445;22;20000;-83
2022/03/30 14:08:37;;;;;;;19.38;12.75;;;;;;;;;;6317308;22;19999;-80
2022/03/30 14:11:03;;;;;;;17.73;12.13;;;;;;;;;;6316679;22;19999;-81
2022/03/30 14:13:30;;;;;;;18.70;13.05;;;;;;;;;;6315591;22;20501;-82
2022/03/30 14:15:56;;;;;;;18.45;12.93;;;;;;;;;;6316558;22;20057;-81
2022/03/30 14:18:24;;;;;;;22.30;13.70;;;;;;;;;;6288474;22;20006;-83
2022/03/30 14:20:54;;;;;;;18.50;12.65;;;;;;;;;;6287357;22;20019;-80
2022/03/30 14:23:20;;;;;;;19.88;13.57;;;;;;;;;;6287623;22;20011;-81
2022/03/30 14:25:46;;;;;;;18.35;13.68;;;;;;;;;;6315248;22;20650;-81
2022/03/30 14:28:12;;;;;;;18.88;14.38;;;;;;;;;;6314620;22;20005;-81
2022/03/30 14:30:39;;;;;;;21.13;14.40;;;;;;;;;;6314998;22;20007;-81
2022/03/30 14:33:06;;;;;;;18.95;14.13;;;;;;;;;;6314192;22;20006;-81
2022/03/30 14:35:33;;;;;;;21.35;13.93;;;;;;;;;;6286843;22;20008;-82